HomeShort term forecast

Short term forecast

Graphical weather forecast for the next 48 hours for Montreal:
Short term forecast
This weather forecast is automatically refreshed every 3 hours.

Hourly Experimental Forecast for the next 48 hours ®

Overall summary: Foggy starting this evening.

 Date & Hour   Temp   Feel   Baro   Hum   Speed & Bearing   Precipitation   Visibility   Cloud cover   Conditions 
 17/01/2018 - 07:00  -13.5°C  -13.5°C  1028.0 hPa  89%  4.1 km/h   0.05 mm/h  7.1km  84%  Mostly Cloudy 
 17/01/2018 - 08:00  -14.0°C  -14.0°C  1028.1 hPa  90%  4.0 km/h   0.05 mm/h  3.4km  82%  Mostly Cloudy 
 17/01/2018 - 09:00  -13.0°C  -13.0°C  1028.2 hPa  88%  3.8 km/h   0.01 mm/h  1.8km  83%  Foggy 
 17/01/2018 - 10:00  -11.3°C  -11.3°C  1027.8 hPa  84%  4.2 km/h   0.01 mm/h  3.4km  86%  Mostly Cloudy 
 17/01/2018 - 11:00  -9.9°C  -12.9°C  1026.8 hPa  81%  5.2 km/h   --  8.8km  91%  Mostly Cloudy 
 17/01/2018 - 12:00  -8.6°C  -12.2°C  1025.5 hPa  80%  6.6 km/h   --  16.0km  95%  Overcast 
 17/01/2018 - 13:00  -7.7°C  -11.8°C  1024.3 hPa  79%  7.9 km/h   0.01 mm/h  16.1km  94%  Overcast 
 17/01/2018 - 14:00  -7.2°C  -11.5°C  1023.4 hPa  79%  8.8 km/h   --  16.1km  81%  Mostly Cloudy 
 17/01/2018 - 15:00  -6.8°C  -11.2°C  1022.7 hPa  79%  9.5 km/h   --  13.8km  63%  Mostly Cloudy 
 17/01/2018 - 16:00  -6.7°C  -11.4°C  1022.0 hPa  79%  10.4 km/h   --  9.3km  53%  Partly Cloudy 
 17/01/2018 - 17:00  -7.4°C  -12.7°C  1021.4 hPa  79%  11.8 km/h   --  5.8km  58%  Partly Cloudy 
 17/01/2018 - 18:00  -8.6°C  -14.6°C  1020.9 hPa  80%  13.6 km/h   0.01 mm/h  2.4km  73%  Foggy 
 17/01/2018 - 19:00  -9.7°C  -16.4°C  1020.3 hPa  83%  15.0 km/h   0.01 mm/h  0.1km  84%  Foggy 
 17/01/2018 - 20:00  -10.6°C  -17.6°C  1019.5 hPa  88%  15.6 km/h   0.01 mm/h  0.0km  88%  Foggy 
 17/01/2018 - 21:00  -10.7°C  -17.8°C  1018.8 hPa  91%  15.8 km/h   0.01 mm/h  0.4km  92%  Foggy 
 17/01/2018 - 22:00  -10.6°C  -17.8°C  1018.0 hPa  92%  16.2 km/h   0.01 mm/h  1.1km  95%  Foggy 
 17/01/2018 - 23:00  -10.3°C  -17.6°C  1017.0 hPa  91%  17.0 km/h   0.01 mm/h  1.2km  97%  Foggy 
 18/01/2018 - 00:00  -9.9°C  -17.3°C  1016.0 hPa  91%  18.0 km/h   0.01 mm/h  1.1km  97%  Foggy 
 18/01/2018 - 01:00  -9.5°C  -17.0°C  1015.2 hPa  90%  18.6 km/h   0.01 mm/h  1.1km  97%  Foggy 
 18/01/2018 - 02:00  -9.3°C  -16.7°C  1014.4 hPa  90%  18.7 km/h   0.01 mm/h  1.3km  95%  Foggy 
 18/01/2018 - 03:00  -9.0°C  -16.2°C  1013.7 hPa  89%  18.4 km/h   0.01 mm/h  1.4km  92%  Foggy 
 18/01/2018 - 04:00  -8.6°C  -15.6°C  1013.1 hPa  87%  18.1 km/h   0.01 mm/h  1.4km  90%  Foggy 
 18/01/2018 - 05:00  -8.2°C  -15.2°C  1012.7 hPa  87%  17.7 km/h   0.02 mm/h  0.9km  90%  Foggy 
 18/01/2018 - 06:00  -8.2°C  -15.0°C  1012.4 hPa  87%  17.2 km/h   0.02 mm/h  0.2km  91%  Foggy 
 18/01/2018 - 07:00  -8.2°C  -15.0°C  1012.3 hPa  89%  17.2 km/h   0.02 mm/h  0.2km  93%  Foggy 
 18/01/2018 - 08:00  -8.0°C  -14.9°C  1012.5 hPa  90%  18.0 km/h   0.01 mm/h  0.9km  94%  Foggy 
 18/01/2018 - 09:00  -7.3°C  -14.3°C  1012.8 hPa  87%  19.2 km/h   --  2.3km  95%  Foggy 
 18/01/2018 - 10:00  -6.3°C  -13.2°C  1013.0 hPa  83%  20.1 km/h   --  5.2km  96%  Overcast 
 18/01/2018 - 11:00  -5.2°C  -11.9°C  1012.6 hPa  80%  20.5 km/h   --  11.3km  96%  Overcast 
 18/01/2018 - 12:00  -4.0°C  -10.5°C  1012.1 hPa  77%  20.8 km/h   --  16.1km  96%  Overcast 
 18/01/2018 - 13:00  -3.3°C  -9.4°C  1011.7 hPa  76%  20.5 km/h   --  16.1km  96%  Overcast 
 18/01/2018 - 14:00  -2.9°C  -8.8°C  1011.6 hPa  75%  19.4 km/h   --  16.1km  89%  Mostly Cloudy 
 18/01/2018 - 15:00  -2.8°C  -8.5°C  1011.6 hPa  75%  17.9 km/h   0.01 mm/h  16.1km  81%  Mostly Cloudy 
 18/01/2018 - 16:00  -3.0°C  -8.5°C  1011.8 hPa  75%  16.7 km/h   0.01 mm/h  16.1km  77%  Mostly Cloudy 
 18/01/2018 - 17:00  -3.8°C  -9.3°C  1012.1 hPa  78%  16.2 km/h   0.01 mm/h  16.1km  82%  Mostly Cloudy 
 18/01/2018 - 18:00  -4.8°C  -10.5°C  1012.6 hPa  82%  16.0 km/h   0.01 mm/h  7.5km  91%  Mostly Cloudy 
 18/01/2018 - 19:00  -5.9°C  -11.8°C  1013.0 hPa  86%  15.7 km/h   0.01 mm/h  0.3km  98%  Foggy 
 18/01/2018 - 20:00  -6.7°C  -12.7°C  1013.3 hPa  89%  15.2 km/h   0.01 mm/h  0.3km  99%  Foggy 
 18/01/2018 - 21:00  -7.3°C  -13.4°C  1013.5 hPa  90%  14.6 km/h   0.01 mm/h  0.4km  99%  Foggy 
 18/01/2018 - 22:00  -7.8°C  -13.7°C  1013.6 hPa  90%  13.9 km/h   0.01 mm/h  1.0km  99%  Foggy 
 18/01/2018 - 23:00  -8.2°C  -14.0°C  1013.8 hPa  91%  13.0 km/h   0.01 mm/h  1.3km  99%  Foggy 
 19/01/2018 - 00:00  -8.5°C  -14.0°C  1014.0 hPa  92%  11.9 km/h   --  1.8km  99%  Foggy 
 19/01/2018 - 01:00  -8.7°C  -14.0°C  1014.0 hPa  93%  10.9 km/h   --  3.6km  98%  Overcast 
 19/01/2018 - 02:00  -8.8°C  -13.7°C  1014.0 hPa  92%  9.9 km/h   --  8.2km  97%  Overcast 
 19/01/2018 - 03:00  -8.6°C  -13.2°C  1014.0 hPa  89%  9.0 km/h   --  14.2km  96%  Overcast 
 19/01/2018 - 04:00  -8.4°C  -12.7°C  1014.2 hPa  86%  8.2 km/h   --  16.1km  95%  Overcast 
 19/01/2018 - 05:00  -8.6°C  -12.7°C  1014.6 hPa  85%  7.8 km/h   --  16.1km  92%  Mostly Cloudy 
 19/01/2018 - 06:00  -9.0°C  -13.1°C  1015.2 hPa  86%  7.7 km/h   0.01 mm/h  16.1km  89%  Mostly Cloudy 
Test

 

Past weather and reports

Past weatherFind in this section the past weather conditions, weather archive, graphics, reports and statistics.

Current conditions

Current weather condition for MontrealAll you need to know about the current weather conditions for Montreal. Weather data is updated every 10 minutes.

Weather forecast

Current Montreal weatherSince 2004, celinium.com website has provided accurate weather forecast for Montreal's island.